Aérodrome :
LOGIN :

S'inscrire | Disclaimer

   EN    FR    IT 

 










Légende :    VFR   VFR Marginal   IFR   IFR Intensif   IFR Très Intensif
Visi : 
Plafond : 
>= 8 km
>= 3000ft
5 à 8 km
1000 à 3000 ft
1500m à 5 km
500 à 1000 ft
800 à 1500m
200 à 500 ft
< 800m
< 200 ft
Symboles :   Orages  Brouillard  Fortes neiges  Fortes précipitations  Vent > 20 kt
SIGMETs :   Divers  Orages  Givrage  Turbulence  Onde Orograph.  Cendres Volcan.







- Altitude de l'aérodrome : 257 ft
- Code IATA : MAN
- Voir les cartes d'approche


EGCC - Manchester

DERNIER METAR :
  • 190350Z AUTO 16002KT 9999 NCD M01/M03 Q1022 NOSIG

METARs EXPIRÉS :
  • 190320Z AUTO VRB01KT 9999 NCD 01/M01 Q1022 NOSIG
  • 190250Z AUTO VRB02KT 9999 NCD 02/M01 Q1022 NOSIG
  • 190220Z AUTO VRB03KT 9999 NCD 04/M01 Q1022 NOSIG
  • 190150Z AUTO VRB03KT 9999 NCD 04/M00 Q1022 NOSIG

TAF TAF EGCC
Valide du 19 à 00h jusqu'au 20 à 06h UTC


182259Z 1900/2006 31005KT 9999 SCT030
BECMG 1920/1923 20012KT
TEMPO 1920/2006 8000 -RA BKN012
PROB40
TEMPO 1922/2006 4000 RADZ BKN007
PROB30
TEMPO 2003/2006 23015G25KT
ATIS : +44 161 499 2324
Pas de NOTAMs connus pour ce terrain.



MET'MAP, la Météo Aéronautique d'un coup d'oeil ! - Copyright ORBIFLY Décembre 2007 - Disclaimer

ORBIFLY MET'MAP TEAM :

Programmation & Développement : Alexandra Zaïnal
Conception & Développement : Baudouin d'Aumeries
Co-Programmation & Développement : Marc-Olivier Méhu
Soutien technique & logistique : Manuel Goepfert

Contact : metmap@orbifly.com




SOURCES & CREDITS :

   NOAA